KPAE/PAE METAR and TAF weather

Enter ICAO airport designator
Station Type Date Time Source
KPAE METAR 2019/02/20 07:16 UTC NOAA

KPAE 200716Z AUTO 00000KT 10SM SCT007 BKN015 OVC028 03/03 A2983 RMK AO2 RAE10 P0000 T00330028


Station Type Date Time Source
KPAE Decoded METAR 2019/02/20 07:16 UTC NOAA

EVERETT SNOHOMISH COUNTY, WA, United States (KPAE) 47-55N 122-17W 180M
Feb 20, 2019 - 02:16 AM EST / 2019.02.20 0716 UTC
Wind: Calm:0
Visibility: 10 mile(s):0
Sky conditions: overcast
Precipitation last hour: A trace
Temperature: 37.9 F (3.3 C)
Dew Point: 37.0 F (2.8 C)
Relative Humidity: 96%
Pressure (altimeter): 29.83 in. Hg (1010 hPa)
ob: KPAE 200716Z AUTO 00000KT 10SM SCT007 BKN015 OVC028 03/03 A2983 RMK AO2 RAE10 P0000 T00330028
cycle: 7

Station Type Date Time Source
KPAE TAF 2019/02/20 06:24 UTC NOAA

TAF KPAE 200521Z 2006/2106 00000KT P6SM -SHRA OVC016
FM201000 32006KT 6SM -SHRA BR BKN015 BKN030
FM201400 35003KT P6SM OVC015
FM202000 35005KT P6SM SCT025 BKN050
FM210300 36004KT P6SM SCT050 BKN150


Example: see airport list